Terminal Aerodrome Forecast
Issued by NWS

Current Version | Previous Version | Graphics & Text | Print | Product List | Glossary On
Versions: 1 2 3 4 5 6 7 8 9 10 11 12 13 14 15 16 17 18 19 20 21
000
FTUS41 KILN 181100
TAFLCK
TAF
KLCK 181120Z 1812/1912 24010KT 6SM -SHSN BR SCT025 BKN040
      TEMPO 1812/1814 2SM -SHSN BR BKN025
     FM181400 23014G22KT P6SM SCT025
     FM181700 23014G22KT P6SM VCSH BKN025
     FM182200 23010KT P6SM OVC025
     FM190800 19008KT P6SM SCT020=

USA.gov is the U.S. government's official web portal to all federal, state and local government web resources and services.